sensor_id;sensor_type;location;lat;lon;timestamp;P1;durP1;ratioP1;P2;durP2;ratioP2
74241;SDS011;62599;49.146;10.426;2022-10-16T00:01:53;2.13;;;1.50;;
74241;SDS011;62599;49.146;10.426;2022-10-16T00:04:18;2.50;;;1.87;;
74241;SDS011;62599;49.146;10.426;2022-10-16T00:06:44;4.77;;;2.00;;
74241;SDS011;62599;49.146;10.426;2022-10-16T00:09:09;2.27;;;1.87;;
74241;SDS011;62599;49.146;10.426;2022-10-16T00:11:37;2.87;;;2.10;;
74241;SDS011;62599;49.146;10.426;2022-10-16T00:14:04;2.47;;;2.28;;
74241;SDS011;62599;49.146;10.426;2022-10-16T00:16:30;2.88;;;2.40;;
74241;SDS011;62599;49.146;10.426;2022-10-16T00:18:55;2.90;;;2.42;;
74241;SDS011;62599;49.146;10.426;2022-10-16T00:21:23;2.85;;;1.90;;
74241;SDS011;62599;49.146;10.426;2022-10-16T00:23:56;4.70;;;2.40;;
74241;SDS011;62599;49.146;10.426;2022-10-16T00:26:21;2.95;;;2.38;;
74241;SDS011;62599;49.146;10.426;2022-10-16T00:28:47;4.15;;;2.40;;
74241;SDS011;62599;49.146;10.426;2022-10-16T00:31:13;6.10;;;2.40;;
74241;SDS011;62599;49.146;10.426;2022-10-16T00:33:38;5.37;;;2.53;;
74241;SDS011;62599;49.146;10.426;2022-10-16T00:36:05;3.53;;;2.85;;
74241;SDS011;62599;49.146;10.426;2022-10-16T00:38:30;3.25;;;2.78;;
74241;SDS011;62599;49.146;10.426;2022-10-16T00:40:56;3.67;;;2.85;;
74241;SDS011;62599;49.146;10.426;2022-10-16T00:46:08;3.33;;;2.65;;
74241;SDS011;62599;49.146;10.426;2022-10-16T00:48:34;5.03;;;2.83;;
74241;SDS011;62599;49.146;10.426;2022-10-16T00:51:00;3.17;;;2.33;;
74241;SDS011;62599;49.146;10.426;2022-10-16T00:53:25;2.83;;;2.13;;
74241;SDS011;62599;49.146;10.426;2022-10-16T00:55:51;8.02;;;2.88;;
74241;SDS011;62599;49.146;10.426;2022-10-16T00:58:16;3.42;;;2.80;;
74241;SDS011;62599;49.146;10.426;2022-10-16T01:00:41;4.27;;;2.70;;
74241;SDS011;62599;49.146;10.426;2022-10-16T01:03:23;3.13;;;2.30;;
74241;SDS011;62599;49.146;10.426;2022-10-16T01:05:50;3.92;;;2.50;;
74241;SDS011;62599;49.146;10.426;2022-10-16T01:08:20;4.20;;;2.65;;
74241;SDS011;62599;49.146;10.426;2022-10-16T01:13:18;4.00;;;2.38;;
74241;SDS011;62599;49.146;10.426;2022-10-16T01:18:33;2.75;;;2.35;;
74241;SDS011;62599;49.146;10.426;2022-10-16T01:31:10;5.63;;;3.08;;
74241;SDS011;62599;49.146;10.426;2022-10-16T01:33:38;2.60;;;2.20;;
74241;SDS011;62599;49.146;10.426;2022-10-16T01:38:54;5.70;;;2.72;;
74241;SDS011;62599;49.146;10.426;2022-10-16T01:41:33;2.55;;;2.35;;
74241;SDS011;62599;49.146;10.426;2022-10-16T01:44:04;1.77;;;1.67;;
74241;SDS011;62599;49.146;10.426;2022-10-16T01:46:30;2.40;;;1.90;;
74241;SDS011;62599;49.146;10.426;2022-10-16T01:48:56;2.95;;;2.22;;
74241;SDS011;62599;49.146;10.426;2022-10-16T01:51:22;2.25;;;1.95;;
74241;SDS011;62599;49.146;10.426;2022-10-16T01:53:49;3.58;;;2.15;;
74241;SDS011;62599;49.146;10.426;2022-10-16T01:56:15;4.32;;;2.38;;
74241;SDS011;62599;49.146;10.426;2022-10-16T01:58:44;2.30;;;1.80;;
74241;SDS011;62599;49.146;10.426;2022-10-16T02:01:10;3.38;;;1.70;;
74241;SDS011;62599;49.146;10.426;2022-10-16T02:03:36;2.17;;;1.90;;
74241;SDS011;62599;49.146;10.426;2022-10-16T02:06:03;3.17;;;2.95;;
74241;SDS011;62599;49.146;10.426;2022-10-16T02:08:28;2.47;;;2.13;;
74241;SDS011;62599;49.146;10.426;2022-10-16T02:10:57;2.15;;;1.95;;
74241;SDS011;62599;49.146;10.426;2022-10-16T02:13:37;2.35;;;2.03;;
74241;SDS011;62599;49.146;10.426;2022-10-16T02:16:03;2.90;;;2.13;;
74241;SDS011;62599;49.146;10.426;2022-10-16T02:18:29;2.40;;;1.98;;
74241;SDS011;62599;49.146;10.426;2022-10-16T02:20:59;4.05;;;3.30;;
74241;SDS011;62599;49.146;10.426;2022-10-16T02:25:54;2.28;;;1.90;;
74241;SDS011;62599;49.146;10.426;2022-10-16T02:28:22;2.22;;;2.03;;
74241;SDS011;62599;49.146;10.426;2022-10-16T02:30:50;2.90;;;2.05;;
74241;SDS011;62599;49.146;10.426;2022-10-16T02:33:16;8.45;;;2.72;;
74241;SDS011;62599;49.146;10.426;2022-10-16T02:35:42;3.92;;;3.63;;
74241;SDS011;62599;49.146;10.426;2022-10-16T02:38:09;3.25;;;2.15;;
74241;SDS011;62599;49.146;10.426;2022-10-16T02:40:35;2.47;;;2.20;;
74241;SDS011;62599;49.146;10.426;2022-10-16T02:43:02;1.95;;;1.63;;
74241;SDS011;62599;49.146;10.426;2022-10-16T02:45:28;2.45;;;2.00;;
74241;SDS011;62599;49.146;10.426;2022-10-16T02:47:54;2.85;;;2.28;;
74241;SDS011;62599;49.146;10.426;2022-10-16T02:50:19;5.23;;;2.63;;
74241;SDS011;62599;49.146;10.426;2022-10-16T02:52:44;6.63;;;2.40;;
74241;SDS011;62599;49.146;10.426;2022-10-16T02:55:09;2.20;;;2.00;;
74241;SDS011;62599;49.146;10.426;2022-10-16T02:57:35;2.87;;;1.93;;
74241;SDS011;62599;49.146;10.426;2022-10-16T03:00:02;4.55;;;2.17;;
74241;SDS011;62599;49.146;10.426;2022-10-16T03:02:27;4.15;;;2.08;;
74241;SDS011;62599;49.146;10.426;2022-10-16T03:04:53;3.67;;;2.37;;
74241;SDS011;62599;49.146;10.426;2022-10-16T03:07:18;2.40;;;1.60;;
74241;SDS011;62599;49.146;10.426;2022-10-16T03:09:43;4.10;;;1.80;;
74241;SDS011;62599;49.146;10.426;2022-10-16T03:12:09;5.95;;;1.98;;
74241;SDS011;62599;49.146;10.426;2022-10-16T03:14:34;5.80;;;2.20;;
74241;SDS011;62599;49.146;10.426;2022-10-16T03:16:59;2.90;;;2.20;;
74241;SDS011;62599;49.146;10.426;2022-10-16T03:19:24;3.23;;;1.90;;
74241;SDS011;62599;49.146;10.426;2022-10-16T03:21:50;4.00;;;2.20;;
74241;SDS011;62599;49.146;10.426;2022-10-16T03:24:15;2.67;;;1.70;;
74241;SDS011;62599;49.146;10.426;2022-10-16T03:26:40;3.87;;;2.40;;
74241;SDS011;62599;49.146;10.426;2022-10-16T03:29:05;2.80;;;1.93;;
74241;SDS011;62599;49.146;10.426;2022-10-16T03:31:31;3.58;;;2.05;;
74241;SDS011;62599;49.146;10.426;2022-10-16T03:33:56;2.17;;;1.97;;
74241;SDS011;62599;49.146;10.426;2022-10-16T03:36:21;2.93;;;2.53;;
74241;SDS011;62599;49.146;10.426;2022-10-16T03:38:47;6.53;;;2.27;;
74241;SDS011;62599;49.146;10.426;2022-10-16T03:41:12;7.37;;;2.57;;
74241;SDS011;62599;49.146;10.426;2022-10-16T03:43:37;2.07;;;1.73;;
74241;SDS011;62599;49.146;10.426;2022-10-16T03:46:02;3.33;;;2.17;;
74241;SDS011;62599;49.146;10.426;2022-10-16T03:48:28;2.37;;;2.17;;
74241;SDS011;62599;49.146;10.426;2022-10-16T03:50:53;5.30;;;2.03;;
74241;SDS011;62599;49.146;10.426;2022-10-16T03:53:20;2.20;;;2.00;;
74241;SDS011;62599;49.146;10.426;2022-10-16T03:55:45;3.47;;;2.22;;
74241;SDS011;62599;49.146;10.426;2022-10-16T03:58:10;3.73;;;2.20;;
74241;SDS011;62599;49.146;10.426;2022-10-16T04:00:36;2.55;;;2.05;;
74241;SDS011;62599;49.146;10.426;2022-10-16T04:03:04;2.58;;;2.15;;
74241;SDS011;62599;49.146;10.426;2022-10-16T04:05:29;3.10;;;2.40;;
74241;SDS011;62599;49.146;10.426;2022-10-16T04:07:54;2.90;;;2.17;;
74241;SDS011;62599;49.146;10.426;2022-10-16T04:10:20;2.10;;;1.90;;
74241;SDS011;62599;49.146;10.426;2022-10-16T04:12:45;2.90;;;2.30;;
74241;SDS011;62599;49.146;10.426;2022-10-16T04:15:10;3.63;;;2.70;;
74241;SDS011;62599;49.146;10.426;2022-10-16T04:17:35;4.77;;;2.57;;
74241;SDS011;62599;49.146;10.426;2022-10-16T04:20:01;5.63;;;2.57;;
74241;SDS011;62599;49.146;10.426;2022-10-16T04:22:26;10.70;;;2.73;;
74241;SDS011;62599;49.146;10.426;2022-10-16T04:24:51;3.60;;;2.87;;
74241;SDS011;62599;49.146;10.426;2022-10-16T04:27:16;2.23;;;1.70;;
74241;SDS011;62599;49.146;10.426;2022-10-16T04:29:41;5.07;;;2.97;;
74241;SDS011;62599;49.146;10.426;2022-10-16T04:32:07;3.83;;;2.57;;
74241;SDS011;62599;49.146;10.426;2022-10-16T04:34:33;3.05;;;2.72;;
74241;SDS011;62599;49.146;10.426;2022-10-16T04:36:58;4.60;;;2.83;;
74241;SDS011;62599;49.146;10.426;2022-10-16T04:39:23;3.37;;;2.77;;
74241;SDS011;62599;49.146;10.426;2022-10-16T04:41:49;3.30;;;2.70;;
74241;SDS011;62599;49.146;10.426;2022-10-16T04:44:14;4.00;;;3.47;;
74241;SDS011;62599;49.146;10.426;2022-10-16T04:46:39;5.23;;;3.30;;
74241;SDS011;62599;49.146;10.426;2022-10-16T04:49:05;3.40;;;3.10;;
74241;SDS011;62599;49.146;10.426;2022-10-16T04:51:30;4.83;;;2.93;;
74241;SDS011;62599;49.146;10.426;2022-10-16T04:53:55;5.17;;;3.33;;
74241;SDS011;62599;49.146;10.426;2022-10-16T04:56:20;4.73;;;3.57;;
74241;SDS011;62599;49.146;10.426;2022-10-16T04:58:46;3.95;;;3.17;;
74241;SDS011;62599;49.146;10.426;2022-10-16T05:01:12;5.63;;;3.65;;
74241;SDS011;62599;49.146;10.426;2022-10-16T05:03:37;5.47;;;2.85;;
74241;SDS011;62599;49.146;10.426;2022-10-16T05:06:04;6.37;;;3.33;;
74241;SDS011;62599;49.146;10.426;2022-10-16T05:08:29;4.38;;;3.17;;
74241;SDS011;62599;49.146;10.426;2022-10-16T05:10:55;4.67;;;3.60;;
74241;SDS011;62599;49.146;10.426;2022-10-16T05:13:20;4.83;;;3.87;;
74241;SDS011;62599;49.146;10.426;2022-10-16T05:15:48;6.73;;;3.57;;
74241;SDS011;62599;49.146;10.426;2022-10-16T05:18:14;4.03;;;3.33;;
74241;SDS011;62599;49.146;10.426;2022-10-16T05:20:39;5.23;;;3.73;;
74241;SDS011;62599;49.146;10.426;2022-10-16T05:23:04;4.83;;;3.47;;
74241;SDS011;62599;49.146;10.426;2022-10-16T05:25:29;5.03;;;3.40;;
74241;SDS011;62599;49.146;10.426;2022-10-16T05:27:55;4.47;;;3.20;;
74241;SDS011;62599;49.146;10.426;2022-10-16T05:30:20;4.83;;;3.70;;
74241;SDS011;62599;49.146;10.426;2022-10-16T05:32:46;4.33;;;3.70;;
74241;SDS011;62599;49.146;10.426;2022-10-16T05:35:11;6.07;;;4.65;;
74241;SDS011;62599;49.146;10.426;2022-10-16T05:37:36;6.10;;;3.63;;
74241;SDS011;62599;49.146;10.426;2022-10-16T05:40:02;4.50;;;3.47;;
74241;SDS011;62599;49.146;10.426;2022-10-16T05:42:28;4.85;;;3.42;;
74241;SDS011;62599;49.146;10.426;2022-10-16T05:44:54;5.17;;;3.90;;
74241;SDS011;62599;49.146;10.426;2022-10-16T05:47:19;6.57;;;3.37;;
74241;SDS011;62599;49.146;10.426;2022-10-16T05:49:45;7.15;;;2.90;;
74241;SDS011;62599;49.146;10.426;2022-10-16T05:52:11;4.53;;;3.93;;
74241;SDS011;62599;49.146;10.426;2022-10-16T05:54:36;5.97;;;3.10;;
74241;SDS011;62599;49.146;10.426;2022-10-16T05:57:01;5.57;;;3.80;;
74241;SDS011;62599;49.146;10.426;2022-10-16T05:59:27;4.78;;;3.72;;
74241;SDS011;62599;49.146;10.426;2022-10-16T06:01:52;5.13;;;3.43;;
74241;SDS011;62599;49.146;10.426;2022-10-16T06:04:18;5.70;;;3.33;;
74241;SDS011;62599;49.146;10.426;2022-10-16T06:06:43;4.03;;;3.40;;
74241;SDS011;62599;49.146;10.426;2022-10-16T06:09:09;6.85;;;3.97;;
74241;SDS011;62599;49.146;10.426;2022-10-16T06:11:34;4.43;;;3.67;;
74241;SDS011;62599;49.146;10.426;2022-10-16T06:14:01;5.15;;;3.50;;
74241;SDS011;62599;49.146;10.426;2022-10-16T06:16:28;6.60;;;3.60;;
74241;SDS011;62599;49.146;10.426;2022-10-16T06:18:54;5.30;;;3.67;;
74241;SDS011;62599;49.146;10.426;2022-10-16T06:21:22;4.38;;;3.40;;
74241;SDS011;62599;49.146;10.426;2022-10-16T06:23:47;6.10;;;3.42;;
74241;SDS011;62599;49.146;10.426;2022-10-16T06:26:14;5.53;;;3.45;;
74241;SDS011;62599;49.146;10.426;2022-10-16T06:28:40;3.60;;;3.25;;
74241;SDS011;62599;49.146;10.426;2022-10-16T06:31:06;7.43;;;3.30;;
74241;SDS011;62599;49.146;10.426;2022-10-16T06:33:31;4.22;;;3.67;;
74241;SDS011;62599;49.146;10.426;2022-10-16T06:36:03;3.87;;;3.30;;
74241;SDS011;62599;49.146;10.426;2022-10-16T06:38:29;4.78;;;3.20;;
74241;SDS011;62599;49.146;10.426;2022-10-16T06:40:54;4.25;;;3.35;;
74241;SDS011;62599;49.146;10.426;2022-10-16T06:43:20;3.23;;;2.87;;
74241;SDS011;62599;49.146;10.426;2022-10-16T06:45:54;3.93;;;2.77;;
74241;SDS011;62599;49.146;10.426;2022-10-16T06:48:20;5.97;;;2.13;;
74241;SDS011;62599;49.146;10.426;2022-10-16T06:50:59;5.32;;;2.97;;
74241;SDS011;62599;49.146;10.426;2022-10-16T06:53:24;3.60;;;2.88;;
74241;SDS011;62599;49.146;10.426;2022-10-16T06:55:49;6.33;;;3.73;;
74241;SDS011;62599;49.146;10.426;2022-10-16T06:58:14;3.30;;;2.87;;
74241;SDS011;62599;49.146;10.426;2022-10-16T07:00:40;5.10;;;2.70;;
74241;SDS011;62599;49.146;10.426;2022-10-16T07:03:05;3.37;;;2.47;;
74241;SDS011;62599;49.146;10.426;2022-10-16T07:05:30;3.30;;;2.60;;
74241;SDS011;62599;49.146;10.426;2022-10-16T07:07:55;4.53;;;2.80;;
74241;SDS011;62599;49.146;10.426;2022-10-16T07:10:20;2.50;;;2.30;;
74241;SDS011;62599;49.146;10.426;2022-10-16T07:12:49;4.88;;;2.60;;
74241;SDS011;62599;49.146;10.426;2022-10-16T07:15:14;4.10;;;3.50;;
74241;SDS011;62599;49.146;10.426;2022-10-16T07:17:39;3.07;;;2.23;;
74241;SDS011;62599;49.146;10.426;2022-10-16T07:20:04;3.30;;;3.00;;
74241;SDS011;62599;49.146;10.426;2022-10-16T07:22:30;5.80;;;2.30;;
74241;SDS011;62599;49.146;10.426;2022-10-16T07:24:55;5.73;;;2.30;;
74241;SDS011;62599;49.146;10.426;2022-10-16T07:27:20;3.23;;;2.50;;
74241;SDS011;62599;49.146;10.426;2022-10-16T07:29:48;2.80;;;2.28;;
74241;SDS011;62599;49.146;10.426;2022-10-16T07:32:14;4.83;;;2.63;;
74241;SDS011;62599;49.146;10.426;2022-10-16T07:34:39;4.97;;;2.83;;
74241;SDS011;62599;49.146;10.426;2022-10-16T07:37:04;4.13;;;2.23;;
74241;SDS011;62599;49.146;10.426;2022-10-16T07:39:29;4.03;;;2.63;;
74241;SDS011;62599;49.146;10.426;2022-10-16T07:41:55;2.70;;;2.10;;
74241;SDS011;62599;49.146;10.426;2022-10-16T07:44:20;4.40;;;3.00;;
74241;SDS011;62599;49.146;10.426;2022-10-16T07:46:45;3.10;;;2.40;;
74241;SDS011;62599;49.146;10.426;2022-10-16T07:49:11;3.42;;;2.20;;
74241;SDS011;62599;49.146;10.426;2022-10-16T07:51:36;3.47;;;2.10;;
74241;SDS011;62599;49.146;10.426;2022-10-16T07:54:03;2.17;;;1.95;;
74241;SDS011;62599;49.146;10.426;2022-10-16T07:56:30;2.60;;;2.07;;
74241;SDS011;62599;49.146;10.426;2022-10-16T07:58:55;2.03;;;1.83;;
74241;SDS011;62599;49.146;10.426;2022-10-16T08:01:21;2.22;;;1.45;;
74241;SDS011;62599;49.146;10.426;2022-10-16T08:03:47;2.50;;;1.20;;
74241;SDS011;62599;49.146;10.426;2022-10-16T08:06:13;3.65;;;2.13;;
74241;SDS011;62599;49.146;10.426;2022-10-16T08:08:38;2.40;;;1.70;;
74241;SDS011;62599;49.146;10.426;2022-10-16T08:11:03;1.97;;;1.83;;
74241;SDS011;62599;49.146;10.426;2022-10-16T08:13:29;3.30;;;2.20;;
74241;SDS011;62599;49.146;10.426;2022-10-16T08:15:55;2.42;;;2.05;;
74241;SDS011;62599;49.146;10.426;2022-10-16T08:18:20;2.08;;;1.65;;
74241;SDS011;62599;49.146;10.426;2022-10-16T08:20:45;2.07;;;1.50;;
74241;SDS011;62599;49.146;10.426;2022-10-16T08:23:11;3.27;;;1.70;;
74241;SDS011;62599;49.146;10.426;2022-10-16T08:25:37;2.67;;;1.30;;
74241;SDS011;62599;49.146;10.426;2022-10-16T08:28:05;6.53;;;2.25;;
74241;SDS011;62599;49.146;10.426;2022-10-16T08:30:31;2.40;;;1.80;;
74241;SDS011;62599;49.146;10.426;2022-10-16T08:32:56;4.80;;;1.60;;
74241;SDS011;62599;49.146;10.426;2022-10-16T08:35:23;1.67;;;1.30;;
74241;SDS011;62599;49.146;10.426;2022-10-16T08:37:51;4.55;;;1.67;;
74241;SDS011;62599;49.146;10.426;2022-10-16T08:40:18;1.50;;;1.02;;
74241;SDS011;62599;49.146;10.426;2022-10-16T08:48:00;1.47;;;0.70;;
74241;SDS011;62599;49.146;10.426;2022-10-16T08:50:30;3.08;;;1.42;;
74241;SDS011;62599;49.146;10.426;2022-10-16T08:52:56;3.78;;;1.35;;
74241;SDS011;62599;49.146;10.426;2022-10-16T08:55:33;2.00;;;1.10;;
74241;SDS011;62599;49.146;10.426;2022-10-16T08:58:02;7.10;;;2.13;;
74241;SDS011;62599;49.146;10.426;2022-10-16T09:00:33;2.50;;;1.13;;
74241;SDS011;62599;49.146;10.426;2022-10-16T09:03:20;1.37;;;1.23;;
74241;SDS011;62599;49.146;10.426;2022-10-16T09:08:35;2.78;;;2.20;;
74241;SDS011;62599;49.146;10.426;2022-10-16T09:16:10;3.45;;;2.30;;
74241;SDS011;62599;49.146;10.426;2022-10-16T09:18:39;4.38;;;2.55;;
74241;SDS011;62599;49.146;10.426;2022-10-16T09:23:37;2.10;;;1.45;;
74241;SDS011;62599;49.146;10.426;2022-10-16T09:26:03;3.75;;;1.05;;
74241;SDS011;62599;49.146;10.426;2022-10-16T09:28:28;1.42;;;1.23;;
74241;SDS011;62599;49.146;10.426;2022-10-16T09:30:54;5.73;;;1.53;;
74241;SDS011;62599;49.146;10.426;2022-10-16T09:33:21;1.70;;;0.90;;
74241;SDS011;62599;49.146;10.426;2022-10-16T09:35:48;2.75;;;1.60;;
74241;SDS011;62599;49.146;10.426;2022-10-16T09:38:21;1.13;;;1.02;;
74241;SDS011;62599;49.146;10.426;2022-10-16T09:40:47;2.97;;;2.22;;
74241;SDS011;62599;49.146;10.426;2022-10-16T09:43:20;5.18;;;1.25;;
74241;SDS011;62599;49.146;10.426;2022-10-16T09:45:53;1.83;;;1.50;;
74241;SDS011;62599;49.146;10.426;2022-10-16T09:48:19;1.75;;;1.33;;
74241;SDS011;62599;49.146;10.426;2022-10-16T09:50:54;1.95;;;1.50;;
74241;SDS011;62599;49.146;10.426;2022-10-16T09:53:20;7.00;;;1.65;;
74241;SDS011;62599;49.146;10.426;2022-10-16T09:55:51;2.13;;;1.38;;
74241;SDS011;62599;49.146;10.426;2022-10-16T09:58:16;2.47;;;1.33;;
74241;SDS011;62599;49.146;10.426;2022-10-16T10:00:42;10.30;;;1.92;;
74241;SDS011;62599;49.146;10.426;2022-10-16T10:03:15;2.25;;;1.25;;
74241;SDS011;62599;49.146;10.426;2022-10-16T10:05:47;1.75;;;1.23;;
74241;SDS011;62599;49.146;10.426;2022-10-16T10:08:13;3.38;;;0.88;;
74241;SDS011;62599;49.146;10.426;2022-10-16T10:10:41;1.75;;;0.90;;
74241;SDS011;62599;49.146;10.426;2022-10-16T10:13:20;2.58;;;1.40;;
74241;SDS011;62599;49.146;10.426;2022-10-16T10:15:46;1.42;;;1.00;;
74241;SDS011;62599;49.146;10.426;2022-10-16T10:18:16;2.67;;;1.20;;
74241;SDS011;62599;49.146;10.426;2022-10-16T10:20:42;3.53;;;1.05;;
74241;SDS011;62599;49.146;10.426;2022-10-16T10:23:20;3.03;;;1.10;;
74241;SDS011;62599;49.146;10.426;2022-10-16T10:46:31;4.68;;;0.93;;
74241;SDS011;62599;49.146;10.426;2022-10-16T11:01:49;2.10;;;1.33;;
74241;SDS011;62599;49.146;10.426;2022-10-16T11:06:45;2.45;;;0.90;;
74241;SDS011;62599;49.146;10.426;2022-10-16T11:09:15;3.15;;;1.27;;
74241;SDS011;62599;49.146;10.426;2022-10-16T11:14:14;2.22;;;1.35;;
74241;SDS011;62599;49.146;10.426;2022-10-16T11:17:01;3.35;;;0.90;;
74241;SDS011;62599;49.146;10.426;2022-10-16T11:22:38;2.73;;;1.43;;
74241;SDS011;62599;49.146;10.426;2022-10-16T11:24:42;2.35;;;1.02;;
74241;SDS011;62599;49.146;10.426;2022-10-16T11:27:11;5.68;;;1.17;;
74241;SDS011;62599;49.146;10.426;2022-10-16T11:29:43;1.50;;;1.00;;
74241;SDS011;62599;49.146;10.426;2022-10-16T11:32:19;3.50;;;1.88;;
74241;SDS011;62599;49.146;10.426;2022-10-16T11:34:50;2.45;;;1.10;;
74241;SDS011;62599;49.146;10.426;2022-10-16T11:37:17;1.30;;;1.20;;
74241;SDS011;62599;49.146;10.426;2022-10-16T11:39:44;1.17;;;0.95;;
74241;SDS011;62599;49.146;10.426;2022-10-16T11:42:16;1.08;;;0.85;;
74241;SDS011;62599;49.146;10.426;2022-10-16T11:47:37;2.45;;;1.05;;
74241;SDS011;62599;49.146;10.426;2022-10-16T11:52:39;5.60;;;2.05;;
74241;SDS011;62599;49.146;10.426;2022-10-16T11:55:14;3.38;;;1.33;;
74241;SDS011;62599;49.146;10.426;2022-10-16T11:57:46;3.72;;;0.90;;
74241;SDS011;62599;49.146;10.426;2022-10-16T12:02:54;4.63;;;1.65;;
74241;SDS011;62599;49.146;10.426;2022-10-16T12:07:56;2.65;;;0.75;;
74241;SDS011;62599;49.146;10.426;2022-10-16T12:10:28;1.73;;;1.48;;
74241;SDS011;62599;49.146;10.426;2022-10-16T12:12:53;2.10;;;1.13;;
74241;SDS011;62599;49.146;10.426;2022-10-16T12:15:26;2.10;;;1.42;;
74241;SDS011;62599;49.146;10.426;2022-10-16T12:17:52;0.68;;;0.68;;
74241;SDS011;62599;49.146;10.426;2022-10-16T12:22:51;3.28;;;0.90;;
74241;SDS011;62599;49.146;10.426;2022-10-16T12:25:29;2.15;;;0.77;;
74241;SDS011;62599;49.146;10.426;2022-10-16T12:28:00;2.50;;;0.75;;
74241;SDS011;62599;49.146;10.426;2022-10-16T12:30:26;2.08;;;1.10;;
74241;SDS011;62599;49.146;10.426;2022-10-16T12:32:56;1.67;;;0.95;;
74241;SDS011;62599;49.146;10.426;2022-10-16T12:35:22;1.95;;;0.98;;
74241;SDS011;62599;49.146;10.426;2022-10-16T12:37:48;4.57;;;1.10;;
74241;SDS011;62599;49.146;10.426;2022-10-16T12:40:24;2.58;;;2.38;;
74241;SDS011;62599;49.146;10.426;2022-10-16T12:42:50;2.50;;;1.10;;
74241;SDS011;62599;49.146;10.426;2022-10-16T12:47:53;1.50;;;0.73;;
74241;SDS011;62599;49.146;10.426;2022-10-16T12:50:32;1.15;;;0.98;;
74241;SDS011;62599;49.146;10.426;2022-10-16T12:52:59;0.68;;;0.60;;
74241;SDS011;62599;49.146;10.426;2022-10-16T12:55:24;1.30;;;1.00;;
74241;SDS011;62599;49.146;10.426;2022-10-16T13:00:40;2.47;;;0.93;;
74241;SDS011;62599;49.146;10.426;2022-10-16T13:08:30;0.80;;;0.70;;
74241;SDS011;62599;49.146;10.426;2022-10-16T13:16:02;7.20;;;0.80;;
74241;SDS011;62599;49.146;10.426;2022-10-16T13:23:23;1.57;;;1.30;;
74241;SDS011;62599;49.146;10.426;2022-10-16T13:25:57;6.22;;;1.00;;
74241;SDS011;62599;49.146;10.426;2022-10-16T13:28:27;1.30;;;0.60;;
74241;SDS011;62599;49.146;10.426;2022-10-16T13:30:54;1.55;;;0.93;;
74241;SDS011;62599;49.146;10.426;2022-10-16T13:35:53;1.35;;;0.65;;
74241;SDS011;62599;49.146;10.426;2022-10-16T13:38:19;1.73;;;1.48;;
74241;SDS011;62599;49.146;10.426;2022-10-16T13:40:52;2.88;;;0.52;;
74241;SDS011;62599;49.146;10.426;2022-10-16T13:43:19;2.55;;;1.50;;
74241;SDS011;62599;49.146;10.426;2022-10-16T13:48:29;1.08;;;0.57;;
74241;SDS011;62599;49.146;10.426;2022-10-16T13:51:01;0.88;;;0.50;;
74241;SDS011;62599;49.146;10.426;2022-10-16T13:53:26;3.80;;;0.88;;
74241;SDS011;62599;49.146;10.426;2022-10-16T13:55:52;2.43;;;0.90;;
74241;SDS011;62599;49.146;10.426;2022-10-16T13:58:17;0.80;;;0.80;;
74241;SDS011;62599;49.146;10.426;2022-10-16T14:00:55;1.53;;;0.77;;
74241;SDS011;62599;49.146;10.426;2022-10-16T14:03:28;1.15;;;0.52;;
74241;SDS011;62599;49.146;10.426;2022-10-16T14:05:55;0.65;;;0.47;;
74241;SDS011;62599;49.146;10.426;2022-10-16T14:08:22;1.70;;;0.50;;
74241;SDS011;62599;49.146;10.426;2022-10-16T14:10:53;0.70;;;0.68;;
74241;SDS011;62599;49.146;10.426;2022-10-16T14:13:28;3.28;;;0.73;;
74241;SDS011;62599;49.146;10.426;2022-10-16T14:15:54;2.10;;;1.38;;
74241;SDS011;62599;49.146;10.426;2022-10-16T14:18:22;0.93;;;0.75;;
74241;SDS011;62599;49.146;10.426;2022-10-16T14:20:48;1.05;;;0.75;;
74241;SDS011;62599;49.146;10.426;2022-10-16T14:23:28;5.60;;;1.52;;
74241;SDS011;62599;49.146;10.426;2022-10-16T14:25:53;2.00;;;1.85;;
74241;SDS011;62599;49.146;10.426;2022-10-16T14:28:22;2.30;;;0.73;;
74241;SDS011;62599;49.146;10.426;2022-10-16T14:30:52;2.75;;;1.20;;
74241;SDS011;62599;49.146;10.426;2022-10-16T14:33:24;1.42;;;1.33;;
74241;SDS011;62599;49.146;10.426;2022-10-16T14:36:02;1.80;;;1.33;;
74241;SDS011;62599;49.146;10.426;2022-10-16T14:38:28;2.83;;;0.95;;
74241;SDS011;62599;49.146;10.426;2022-10-16T14:40:54;3.22;;;0.82;;
74241;SDS011;62599;49.146;10.426;2022-10-16T14:43:23;1.25;;;0.75;;
74241;SDS011;62599;49.146;10.426;2022-10-16T14:45:51;1.02;;;0.88;;
74241;SDS011;62599;49.146;10.426;2022-10-16T14:48:18;2.45;;;0.70;;
74241;SDS011;62599;49.146;10.426;2022-10-16T14:50:44;1.80;;;0.82;;
74241;SDS011;62599;49.146;10.426;2022-10-16T14:53:11;3.30;;;0.87;;
74241;SDS011;62599;49.146;10.426;2022-10-16T14:55:36;1.88;;;0.50;;
74241;SDS011;62599;49.146;10.426;2022-10-16T14:58:01;2.65;;;0.93;;
74241;SDS011;62599;49.146;10.426;2022-10-16T15:00:27;1.67;;;1.13;;
74241;SDS011;62599;49.146;10.426;2022-10-16T15:02:52;1.63;;;1.53;;
74241;SDS011;62599;49.146;10.426;2022-10-16T15:05:21;1.20;;;0.80;;
74241;SDS011;62599;49.146;10.426;2022-10-16T15:07:47;0.98;;;0.80;;
74241;SDS011;62599;49.146;10.426;2022-10-16T15:10:14;0.80;;;0.60;;
74241;SDS011;62599;49.146;10.426;2022-10-16T15:12:39;1.48;;;0.82;;
74241;SDS011;62599;49.146;10.426;2022-10-16T15:15:14;2.15;;;0.95;;
74241;SDS011;62599;49.146;10.426;2022-10-16T15:17:40;3.85;;;1.20;;
74241;SDS011;62599;49.146;10.426;2022-10-16T15:20:05;2.90;;;2.70;;
74241;SDS011;62599;49.146;10.426;2022-10-16T15:22:31;1.10;;;0.70;;
74241;SDS011;62599;49.146;10.426;2022-10-16T15:24:56;1.97;;;0.67;;
74241;SDS011;62599;49.146;10.426;2022-10-16T15:27:21;0.87;;;0.60;;
74241;SDS011;62599;49.146;10.426;2022-10-16T15:29:47;1.93;;;1.53;;
74241;SDS011;62599;49.146;10.426;2022-10-16T15:32:12;2.60;;;0.80;;
74241;SDS011;62599;49.146;10.426;2022-10-16T15:34:37;1.07;;;0.87;;
74241;SDS011;62599;49.146;10.426;2022-10-16T15:37:03;1.57;;;1.00;;
74241;SDS011;62599;49.146;10.426;2022-10-16T15:39:28;4.55;;;1.23;;
74241;SDS011;62599;49.146;10.426;2022-10-16T15:41:54;1.50;;;1.00;;
74241;SDS011;62599;49.146;10.426;2022-10-16T15:44:19;2.27;;;1.00;;
74241;SDS011;62599;49.146;10.426;2022-10-16T15:46:45;2.03;;;0.95;;
74241;SDS011;62599;49.146;10.426;2022-10-16T15:49:10;1.27;;;1.08;;
74241;SDS011;62599;49.146;10.426;2022-10-16T15:51:40;2.55;;;1.42;;
74241;SDS011;62599;49.146;10.426;2022-10-16T15:54:06;3.17;;;1.35;;
74241;SDS011;62599;49.146;10.426;2022-10-16T15:56:31;3.33;;;1.63;;
74241;SDS011;62599;49.146;10.426;2022-10-16T15:58:58;2.05;;;1.85;;
74241;SDS011;62599;49.146;10.426;2022-10-16T16:01:23;2.33;;;2.13;;
74241;SDS011;62599;49.146;10.426;2022-10-16T16:03:52;2.50;;;1.67;;
74241;SDS011;62599;49.146;10.426;2022-10-16T16:06:20;4.43;;;1.60;;
74241;SDS011;62599;49.146;10.426;2022-10-16T16:09:13;6.47;;;1.70;;
74241;SDS011;62599;49.146;10.426;2022-10-16T16:11:38;3.17;;;1.20;;
74241;SDS011;62599;49.146;10.426;2022-10-16T16:14:04;3.00;;;2.17;;
74241;SDS011;62599;49.146;10.426;2022-10-16T16:16:30;2.75;;;2.55;;
74241;SDS011;62599;49.146;10.426;2022-10-16T16:18:56;3.10;;;1.00;;
74241;SDS011;62599;49.146;10.426;2022-10-16T16:21:22;2.33;;;2.13;;
74241;SDS011;62599;49.146;10.426;2022-10-16T16:23:47;2.40;;;1.73;;
74241;SDS011;62599;49.146;10.426;2022-10-16T16:26:22;3.53;;;1.50;;
74241;SDS011;62599;49.146;10.426;2022-10-16T16:28:51;2.33;;;0.82;;
74241;SDS011;62599;49.146;10.426;2022-10-16T16:31:16;3.00;;;1.92;;
74241;SDS011;62599;49.146;10.426;2022-10-16T16:33:41;5.17;;;1.80;;